createdAt,value
2019-03-22T00:00:00.819Z,9.10
2019-03-22T00:02:30.897Z,9.10
2019-03-22T00:05:01.250Z,9.10
2019-03-22T00:07:31.267Z,9.00
2019-03-22T00:10:01.351Z,9.00
2019-03-22T00:12:32.252Z,9.00
2019-03-22T00:15:03.316Z,8.90
2019-03-22T00:17:33.387Z,9.00
2019-03-22T00:20:03.418Z,9.00
2019-03-22T00:22:33.407Z,9.00
2019-03-22T00:25:03.710Z,9.00
2019-03-22T00:27:33.726Z,8.90
2019-03-22T00:30:03.766Z,8.90
2019-03-22T00:32:33.766Z,8.90
2019-03-22T00:35:03.816Z,8.90
2019-03-22T00:37:34.215Z,8.90
2019-03-22T00:40:05.601Z,8.90
2019-03-22T00:42:36.047Z,8.80
2019-03-22T00:45:07.129Z,8.80
2019-03-22T00:47:37.091Z,8.80
2019-03-22T00:50:07.272Z,8.70
2019-03-22T00:52:37.571Z,8.70
2019-03-22T00:55:08.133Z,8.70
2019-03-22T00:57:38.229Z,8.60
2019-03-22T01:00:08.657Z,8.60
2019-03-22T01:02:38.733Z,8.60
2019-03-22T01:05:09.799Z,8.50
2019-03-22T01:07:40.518Z,8.60
2019-03-22T01:10:11.469Z,8.60
2019-03-22T01:12:42.185Z,8.60
2019-03-22T01:15:12.669Z,8.60
2019-03-22T01:17:43.062Z,8.50
2019-03-22T01:20:13.258Z,8.60
2019-03-22T01:22:43.836Z,8.60
2019-03-22T01:25:13.890Z,8.50
2019-03-22T01:27:43.981Z,8.50
2019-03-22T01:30:14.496Z,8.60
2019-03-22T01:32:44.528Z,8.50
2019-03-22T01:35:14.569Z,8.50
2019-03-22T01:37:45.899Z,8.50
2019-03-22T01:40:16.810Z,8.40
2019-03-22T01:42:47.377Z,8.40
2019-03-22T01:45:18.119Z,8.40
2019-03-22T01:47:48.125Z,8.50
2019-03-22T01:50:18.712Z,8.50
2019-03-22T01:52:49.762Z,8.40
2019-03-22T01:55:19.751Z,8.40
2019-03-22T01:57:53.409Z,8.40
2019-03-22T02:00:21.992Z,8.40
2019-03-22T02:02:52.010Z,8.40
2019-03-22T02:05:22.052Z,8.40
2019-03-22T02:07:52.060Z,8.40
2019-03-22T02:10:22.030Z,8.40
2019-03-22T02:12:51.922Z,8.40
2019-03-22T02:15:21.979Z,8.30
2019-03-22T02:17:51.933Z,8.30
2019-03-22T02:20:21.869Z,8.30
2019-03-22T02:22:51.871Z,8.20
2019-03-22T02:25:21.834Z,8.20
2019-03-22T02:28:03.509Z,8.20
2019-03-22T02:30:23.798Z,8.20
2019-03-22T02:32:53.842Z,8.20
2019-03-22T02:35:28.848Z,8.20
2019-03-22T02:37:57.044Z,8.20
2019-03-22T02:40:27.242Z,8.20
2019-03-22T02:42:57.163Z,8.20
2019-03-22T02:45:27.173Z,8.20
2019-03-22T02:47:57.290Z,8.20
2019-03-22T02:50:29.394Z,8.30
2019-03-22T02:52:59.777Z,8.30
2019-03-22T02:55:29.875Z,8.30
2019-03-22T02:57:59.796Z,8.30
2019-03-22T03:00:29.750Z,8.30
2019-03-22T03:02:59.741Z,8.30
2019-03-22T03:05:30.009Z,8.30
2019-03-22T03:08:00.012Z,8.30
2019-03-22T03:10:30.042Z,8.30
2019-03-22T03:12:59.955Z,8.30
2019-03-22T03:15:29.873Z,8.30
2019-03-22T03:17:59.800Z,8.30
2019-03-22T03:20:29.779Z,8.30
2019-03-22T03:22:59.765Z,8.30
2019-03-22T03:25:29.723Z,8.20
2019-03-22T03:27:59.784Z,8.20
2019-03-22T03:30:29.698Z,8.30
2019-03-22T03:32:59.631Z,8.30
2019-03-22T03:35:29.601Z,8.30
2019-03-22T03:37:59.631Z,8.20
2019-03-22T03:40:29.667Z,8.20
2019-03-22T03:43:00.268Z,8.30
2019-03-22T03:45:35.569Z,8.20
2019-03-22T03:48:06.846Z,8.30
2019-03-22T03:50:38.622Z,8.20
2019-03-22T03:53:08.762Z,8.30
2019-03-22T03:55:40.114Z,8.30
2019-03-22T03:58:09.985Z,8.30
2019-03-22T04:00:40.037Z,8.30
2019-03-22T04:03:10.091Z,8.30
2019-03-22T04:05:40.144Z,8.30
2019-03-22T04:08:10.145Z,8.30
2019-03-22T04:10:40.162Z,8.40
2019-03-22T04:13:10.118Z,8.40
2019-03-22T04:15:40.261Z,8.40
2019-03-22T04:18:10.298Z,8.30
2019-03-22T04:20:40.319Z,8.30
2019-03-22T04:23:10.343Z,8.40
2019-03-22T04:25:40.436Z,8.30
2019-03-22T04:28:10.719Z,8.40
2019-03-22T04:30:40.828Z,8.40
2019-03-22T04:33:11.626Z,8.40
2019-03-22T04:35:41.981Z,8.40
2019-03-22T04:38:12.366Z,8.40
2019-03-22T04:40:43.608Z,8.50
2019-03-22T04:43:15.428Z,8.50
2019-03-22T04:45:46.606Z,8.50
2019-03-22T04:48:22.294Z,8.40
2019-03-22T04:50:54.732Z,8.50
2019-03-22T04:53:28.064Z,8.50
2019-03-22T04:56:02.142Z,8.50
2019-03-22T04:58:34.246Z,8.50
2019-03-22T05:01:05.495Z,8.50
2019-03-22T05:03:37.065Z,8.60
2019-03-22T05:06:11.867Z,8.60
2019-03-22T05:11:44.394Z,8.50
2019-03-22T05:14:17.586Z,8.60
2019-03-22T05:16:50.028Z,8.60
2019-03-22T05:19:21.022Z,8.60
2019-03-22T05:21:53.007Z,8.60
2019-03-22T05:24:25.449Z,8.60
2019-03-22T05:26:59.155Z,8.60
2019-03-22T05:29:32.313Z,8.60
2019-03-22T05:32:07.374Z,8.70
2019-03-22T05:34:37.801Z,8.70
2019-03-22T05:37:07.814Z,8.70
2019-03-22T05:39:37.898Z,8.80
2019-03-22T05:42:08.215Z,8.70
2019-03-22T05:44:38.558Z,8.70
2019-03-22T05:47:08.498Z,8.70
2019-03-22T05:49:39.072Z,8.70
2019-03-22T05:52:09.095Z,8.80
2019-03-22T05:54:39.200Z,8.80
2019-03-22T05:57:13.597Z,8.80
2019-03-22T05:59:43.123Z,8.80
2019-03-22T06:02:13.602Z,8.90
2019-03-22T06:04:44.478Z,8.90
2019-03-22T06:07:14.571Z,8.90
2019-03-22T06:09:45.089Z,8.80
2019-03-22T06:12:15.498Z,8.80
2019-03-22T06:14:46.277Z,8.80
2019-03-22T06:17:17.597Z,8.80
2019-03-22T06:19:48.702Z,8.80
2019-03-22T06:22:20.237Z,8.80
2019-03-22T06:24:56.139Z,8.80
2019-03-22T06:27:33.590Z,8.80
2019-03-22T06:30:03.695Z,8.80
2019-03-22T06:32:33.724Z,8.80
2019-03-22T06:35:04.770Z,8.90
2019-03-22T06:37:43.616Z,8.80
2019-03-22T06:40:26.060Z,8.80
2019-03-22T06:43:00.936Z,8.70
2019-03-22T06:45:31.464Z,8.70
2019-03-22T06:48:02.133Z,8.80
2019-03-22T06:50:32.147Z,8.80
2019-03-22T06:53:08.359Z,8.90
2019-03-22T06:55:38.523Z,9.00
2019-03-22T06:58:08.645Z,9.00
2019-03-22T07:00:38.640Z,9.00
2019-03-22T07:03:08.981Z,8.90
2019-03-22T07:05:46.889Z,8.90
2019-03-22T07:08:42.242Z,8.90
2019-03-22T07:14:04.130Z,9.00
2019-03-22T07:16:34.401Z,9.00
2019-03-22T07:19:06.221Z,9.00
2019-03-22T07:21:36.264Z,9.00
2019-03-22T07:24:07.187Z,9.00
2019-03-22T07:26:37.751Z,9.10
2019-03-22T07:29:10.546Z,9.10
2019-03-22T07:31:40.643Z,9.20
2019-03-22T07:34:11.125Z,9.20
2019-03-22T07:36:41.595Z,9.20
2019-03-22T07:39:11.759Z,9.30
2019-03-22T07:41:41.825Z,9.30
2019-03-22T07:44:11.904Z,9.30
2019-03-22T07:46:41.899Z,9.40
2019-03-22T07:49:11.819Z,9.50
2019-03-22T07:51:42.297Z,9.50
2019-03-22T07:54:12.384Z,9.60
2019-03-22T07:56:43.035Z,9.60
2019-03-22T07:59:13.782Z,9.70
2019-03-22T08:01:43.914Z,9.80
2019-03-22T08:04:14.524Z,9.80
2019-03-22T08:06:46.388Z,9.80
2019-03-22T08:09:16.641Z,9.80
2019-03-22T08:11:47.192Z,9.70
2019-03-22T08:14:17.623Z,9.60
2019-03-22T08:16:48.907Z,9.60
2019-03-22T08:19:18.871Z,9.60
2019-03-22T08:21:48.801Z,9.70
2019-03-22T08:24:18.777Z,9.70
2019-03-22T08:26:48.682Z,9.70
2019-03-22T08:29:18.665Z,9.80
2019-03-22T08:31:48.712Z,9.80
2019-03-22T08:34:18.693Z,10.00
2019-03-22T08:36:48.691Z,10.10
2019-03-22T08:39:18.710Z,10.10
2019-03-22T08:41:48.624Z,10.10
2019-03-22T08:44:18.662Z,10.20
2019-03-22T08:46:48.576Z,10.20
2019-03-22T08:49:18.688Z,10.30
2019-03-22T08:51:49.832Z,10.30
2019-03-22T08:54:19.891Z,10.10
2019-03-22T08:56:49.943Z,9.90
2019-03-22T08:59:19.958Z,10.00
2019-03-22T09:01:49.843Z,10.00
2019-03-22T09:04:19.616Z,10.10
2019-03-22T09:06:52.647Z,10.10
2019-03-22T09:09:22.570Z,10.20
2019-03-22T09:12:12.618Z,10.20
2019-03-22T09:14:42.561Z,10.30
2019-03-22T09:17:12.515Z,10.30
2019-03-22T09:19:44.408Z,10.30
2019-03-22T09:22:14.098Z,10.40
2019-03-22T09:24:44.052Z,10.50
2019-03-22T09:27:14.050Z,10.60
2019-03-22T09:29:44.038Z,10.60
2019-03-22T09:32:14.037Z,10.80
2019-03-22T09:34:44.910Z,11.00
2019-03-22T09:37:14.899Z,11.00
2019-03-22T09:39:44.892Z,11.20
2019-03-22T09:42:14.853Z,11.20
2019-03-22T09:44:45.442Z,11.30
2019-03-22T09:47:16.660Z,11.40
2019-03-22T09:49:47.841Z,11.50
2019-03-22T09:52:17.737Z,11.50
2019-03-22T09:54:47.698Z,11.70
2019-03-22T09:57:17.717Z,11.80
2019-03-22T09:59:48.849Z,11.90
2019-03-22T10:02:18.847Z,12.00
2019-03-22T10:04:48.751Z,12.20
2019-03-22T10:07:18.891Z,12.30
2019-03-22T10:09:48.922Z,12.40
2019-03-22T10:12:19.089Z,12.50
2019-03-22T10:14:49.183Z,12.60
2019-03-22T10:17:19.176Z,12.80
2019-03-22T10:19:49.195Z,12.90
2019-03-22T10:22:19.203Z,13.00
2019-03-22T10:24:49.163Z,13.10
2019-03-22T10:27:19.222Z,13.20
2019-03-22T10:29:50.549Z,13.40
2019-03-22T10:32:23.497Z,13.50
2019-03-22T10:34:52.365Z,13.70
2019-03-22T10:37:22.307Z,13.90
2019-03-22T10:39:52.347Z,13.90
2019-03-22T10:42:22.462Z,14.00
2019-03-22T10:44:52.941Z,14.10
2019-03-22T10:47:22.723Z,14.20
2019-03-22T10:49:52.726Z,14.30
2019-03-22T10:52:22.924Z,14.40
2019-03-22T10:54:54.556Z,14.70
2019-03-22T10:57:25.370Z,14.80
2019-03-22T10:59:55.261Z,14.90
2019-03-22T11:02:25.250Z,15.10
2019-03-22T11:04:55.156Z,15.30
2019-03-22T11:07:25.157Z,15.40
2019-03-22T11:09:56.102Z,15.50
2019-03-22T11:12:26.088Z,15.70
2019-03-22T11:14:56.074Z,15.60
2019-03-22T11:17:26.033Z,15.70
2019-03-22T11:20:01.567Z,15.70
2019-03-22T11:22:31.557Z,15.80
2019-03-22T11:25:01.555Z,15.90
2019-03-22T11:27:31.370Z,16.00
2019-03-22T11:30:01.346Z,16.20
2019-03-22T11:32:33.351Z,16.20
2019-03-22T11:35:03.049Z,16.30
2019-03-22T11:37:35.196Z,16.40
2019-03-22T11:40:24.141Z,16.60
2019-03-22T11:43:13.151Z,16.70
2019-03-22T11:45:44.952Z,16.80
2019-03-22T11:48:15.486Z,16.70
2019-03-22T11:50:55.936Z,16.80
2019-03-22T11:56:22.019Z,17.10
2019-03-22T11:58:52.395Z,17.40
2019-03-22T12:01:23.121Z,17.50
2019-03-22T12:03:53.959Z,17.60
2019-03-22T12:06:27.409Z,17.70
2019-03-22T12:08:57.791Z,17.70
2019-03-22T12:11:28.621Z,17.90
2019-03-22T12:13:59.028Z,18.00
2019-03-22T12:19:36.445Z,18.30
2019-03-22T12:28:22.366Z,18.70
2019-03-22T12:30:54.091Z,18.80
2019-03-22T12:33:24.457Z,19.00
2019-03-22T12:35:55.700Z,19.00
2019-03-22T12:38:48.451Z,19.00
2019-03-22T12:56:37.873Z,20.00
2019-03-22T12:59:14.441Z,20.10
2019-03-22T13:01:46.979Z,20.10
2019-03-22T13:04:17.208Z,20.20
2019-03-22T13:09:53.105Z,20.30
2019-03-22T13:18:11.997Z,20.60
2019-03-22T13:20:43.036Z,20.70
2019-03-22T13:29:26.014Z,21.10
2019-03-22T13:31:56.096Z,21.20
2019-03-22T13:34:27.811Z,21.30
2019-03-22T13:36:57.946Z,21.30
2019-03-22T13:39:34.322Z,21.40
2019-03-22T13:45:10.739Z,21.50
2019-03-22T13:53:32.725Z,21.40
2019-03-22T13:56:04.569Z,21.60
2019-03-22T13:58:35.679Z,21.60
2019-03-22T14:01:05.848Z,21.70
2019-03-22T14:03:36.330Z,21.70
2019-03-22T14:06:08.563Z,21.70
2019-03-22T14:08:44.473Z,21.70
2019-03-22T14:11:13.964Z,21.70
2019-03-22T14:13:44.115Z,21.70
2019-03-22T14:16:14.186Z,21.70
2019-03-22T14:18:44.136Z,21.60
2019-03-22T14:21:14.182Z,21.60
2019-03-22T14:23:47.206Z,21.90
2019-03-22T14:26:17.428Z,22.00
2019-03-22T14:28:47.476Z,22.20
2019-03-22T14:31:17.517Z,22.50
2019-03-22T14:33:48.154Z,22.80
2019-03-22T14:36:18.805Z,23.20
2019-03-22T14:38:49.464Z,23.40
2019-03-22T14:41:20.403Z,23.60
2019-03-22T14:43:50.643Z,23.90
2019-03-22T14:46:20.815Z,24.00
2019-03-22T14:48:59.629Z,24.10
2019-03-22T14:51:29.936Z,24.10
2019-03-22T14:54:25.810Z,24.30
2019-03-22T14:56:56.184Z,24.40
2019-03-22T14:59:26.987Z,24.70
2019-03-22T15:01:58.540Z,24.90
2019-03-22T15:04:30.018Z,24.90
2019-03-22T15:07:00.250Z,25.00
2019-03-22T15:09:30.505Z,24.90
2019-03-22T15:12:00.829Z,25.00
2019-03-22T15:18:03.149Z,25.50
2019-03-22T15:27:07.058Z,25.30
2019-03-22T15:32:46.058Z,25.40
2019-03-22T15:35:48.670Z,25.40
2019-03-22T15:44:24.307Z,26.00
2019-03-22T15:46:58.375Z,26.00
2019-03-22T15:49:28.650Z,26.00
2019-03-22T15:51:58.842Z,26.00
2019-03-22T15:54:29.169Z,26.10
2019-03-22T15:56:59.467Z,26.40
2019-03-22T16:05:26.266Z,26.20
2019-03-22T16:07:56.561Z,26.10
2019-03-22T16:10:26.683Z,26.00
2019-03-22T16:12:56.841Z,25.80
2019-03-22T16:15:27.090Z,25.90
2019-03-22T16:17:57.764Z,25.90
2019-03-22T16:20:28.062Z,25.90
2019-03-22T16:22:59.529Z,25.80
2019-03-22T16:25:29.644Z,25.80
2019-03-22T16:28:02.270Z,25.60
2019-03-22T16:30:32.620Z,25.40
2019-03-22T16:36:12.573Z,24.90
2019-03-22T16:38:45.427Z,24.70
2019-03-22T16:41:16.192Z,24.50
2019-03-22T16:43:47.169Z,24.40
2019-03-22T16:46:22.256Z,24.50
2019-03-22T16:48:52.232Z,24.50
2019-03-22T16:54:35.357Z,24.10
2019-03-22T16:57:05.422Z,23.50
2019-03-22T16:59:35.671Z,22.80
2019-03-22T17:05:17.704Z,21.70
2019-03-22T17:07:47.777Z,21.30
2019-03-22T17:10:23.557Z,21.00
2019-03-22T17:12:55.499Z,20.70
2019-03-22T17:18:23.831Z,20.10
2019-03-22T17:20:59.172Z,19.90
2019-03-22T17:23:32.139Z,19.70
2019-03-22T17:29:04.406Z,19.50
2019-03-22T17:31:34.809Z,19.30
2019-03-22T17:34:14.148Z,19.20
2019-03-22T17:39:46.776Z,18.80
2019-03-22T17:42:18.282Z,18.50
2019-03-22T17:44:48.896Z,18.30
2019-03-22T17:47:19.494Z,18.10
2019-03-22T17:52:51.587Z,17.70
2019-03-22T17:55:22.795Z,17.50
2019-03-22T17:57:53.864Z,17.40
2019-03-22T18:00:25.543Z,17.30
2019-03-22T18:02:55.874Z,17.10
2019-03-22T18:05:26.271Z,16.80
2019-03-22T18:07:59.562Z,16.60
2019-03-22T18:10:33.033Z,16.40
2019-03-22T18:27:32.743Z,15.50
2019-03-22T18:30:05.734Z,15.40
2019-03-22T18:32:35.972Z,15.30
2019-03-22T18:35:06.684Z,15.20
2019-03-22T18:37:38.242Z,15.00
2019-03-22T18:40:08.760Z,14.90
2019-03-22T18:42:38.927Z,14.80
2019-03-22T18:45:09.862Z,14.70
2019-03-22T18:47:40.091Z,14.60
2019-03-22T18:53:36.642Z,14.50
2019-03-22T18:56:09.016Z,14.50
2019-03-22T18:58:39.552Z,14.50
2019-03-22T19:04:10.132Z,14.40
2019-03-22T19:06:40.368Z,14.30
2019-03-22T19:12:09.092Z,14.20
2019-03-22T19:14:39.116Z,14.10
2019-03-22T19:17:10.022Z,14.00
2019-03-22T19:19:41.148Z,13.90
2019-03-22T19:22:11.123Z,13.80
2019-03-22T19:24:41.353Z,13.70
2019-03-22T19:27:14.111Z,13.70
2019-03-22T19:29:44.196Z,13.60
2019-03-22T19:32:15.131Z,13.60
2019-03-22T19:34:53.895Z,13.60
2019-03-22T19:37:16.832Z,13.60
2019-03-22T19:39:46.839Z,13.50
2019-03-22T19:42:16.787Z,13.50
2019-03-22T19:44:46.773Z,13.40
2019-03-22T19:47:16.715Z,13.40
2019-03-22T19:49:47.750Z,13.30
2019-03-22T19:52:18.042Z,13.20
2019-03-22T19:54:48.046Z,13.20
2019-03-22T19:57:18.081Z,13.10
2019-03-22T19:59:48.449Z,13.00
2019-03-22T20:02:18.431Z,12.90
2019-03-22T20:04:48.406Z,12.90
2019-03-22T20:07:26.525Z,12.80
2019-03-22T20:09:49.871Z,12.70
2019-03-22T20:12:20.107Z,12.60
2019-03-22T20:14:50.059Z,12.60
2019-03-22T20:17:20.095Z,12.50
2019-03-22T20:19:51.389Z,12.40
2019-03-22T20:22:21.549Z,12.40
2019-03-22T20:24:51.509Z,12.40
2019-03-22T20:27:21.574Z,12.40
2019-03-22T20:29:51.657Z,12.30
2019-03-22T20:32:22.544Z,12.20
2019-03-22T20:34:53.202Z,12.10
2019-03-22T20:37:23.570Z,12.00
2019-03-22T20:39:54.537Z,12.00
2019-03-22T20:42:24.917Z,12.00
2019-03-22T20:44:54.977Z,11.90
2019-03-22T20:47:26.667Z,12.00
2019-03-22T20:49:57.134Z,11.90
2019-03-22T20:52:29.664Z,11.90
2019-03-22T20:55:00.139Z,11.90
2019-03-22T20:57:30.601Z,11.90
2019-03-22T21:00:01.052Z,11.90
2019-03-22T21:02:34.108Z,11.90
2019-03-22T21:05:05.550Z,11.80
2019-03-22T21:07:35.566Z,11.90
2019-03-22T21:10:05.899Z,11.80
2019-03-22T21:12:36.065Z,11.80
2019-03-22T21:15:07.092Z,11.80
2019-03-22T21:20:33.545Z,11.80
2019-03-22T21:23:03.852Z,11.80
2019-03-22T21:25:34.197Z,11.80
2019-03-22T21:28:04.187Z,11.70
2019-03-22T21:33:30.197Z,11.70
2019-03-22T21:36:00.364Z,11.70
2019-03-22T21:38:30.536Z,11.60
2019-03-22T21:41:00.797Z,11.60
2019-03-22T21:43:30.957Z,11.60
2019-03-22T21:46:01.101Z,11.60
2019-03-22T21:48:35.673Z,11.50
2019-03-22T21:51:05.937Z,11.50
2019-03-22T21:53:36.229Z,11.40
2019-03-22T21:56:06.634Z,11.40
2019-03-22T21:58:36.769Z,11.30
2019-03-22T22:04:07.291Z,11.20
2019-03-22T22:06:37.265Z,11.20
2019-03-22T22:09:07.880Z,11.10
2019-03-22T22:11:37.819Z,11.00
2019-03-22T22:14:07.830Z,11.00
2019-03-22T22:16:42.863Z,11.00
2019-03-22T22:19:12.799Z,10.90
2019-03-22T22:21:42.782Z,10.80
2019-03-22T22:24:12.800Z,10.60
2019-03-22T22:26:42.756Z,10.60
2019-03-22T22:29:12.818Z,10.50
2019-03-22T22:31:42.864Z,10.40
2019-03-22T22:34:12.894Z,10.30
2019-03-22T22:36:43.699Z,10.20
2019-03-22T22:39:14.094Z,10.10
2019-03-22T22:41:44.839Z,10.00
2019-03-22T22:44:15.238Z,9.90
2019-03-22T22:46:45.266Z,9.80
2019-03-22T22:49:15.213Z,9.70
2019-03-22T22:51:45.176Z,9.50
2019-03-22T22:54:15.571Z,9.10
2019-03-22T22:56:46.622Z,8.80
2019-03-22T22:59:16.655Z,8.60
2019-03-22T23:01:47.358Z,8.40
2019-03-22T23:04:17.487Z,8.30
2019-03-22T23:06:47.990Z,8.10
2019-03-22T23:09:18.516Z,8.10
2019-03-22T23:11:49.845Z,8.10
2019-03-22T23:14:19.841Z,8.10
2019-03-22T23:16:50.119Z,8.10
2019-03-22T23:19:20.181Z,8.10
2019-03-22T23:21:50.097Z,8.10
2019-03-22T23:24:20.516Z,8.10
2019-03-22T23:26:52.907Z,8.00
2019-03-22T23:29:24.585Z,8.00
2019-03-22T23:31:54.684Z,8.10
2019-03-22T23:34:24.796Z,8.10
2019-03-22T23:36:54.807Z,8.10
2019-03-22T23:39:25.085Z,8.10
2019-03-22T23:41:57.551Z,8.20
2019-03-22T23:44:27.636Z,8.10
2019-03-22T23:47:00.028Z,8.20
2019-03-22T23:49:31.614Z,8.20
2019-03-22T23:52:02.625Z,8.20
2019-03-22T23:54:32.622Z,8.20
2019-03-22T23:57:03.633Z,8.30
2019-03-22T23:59:33.707Z,8.30
